sensor_id;sensor_type;location;lat;lon;timestamp;temperature;humidity
21425;DHT22;10873;51.132;16.848;2023-11-25T00:01:06;24.50;49.80
21425;DHT22;10873;51.132;16.848;2023-11-25T00:03:40;24.50;49.80
21425;DHT22;10873;51.132;16.848;2023-11-25T00:06:11;24.50;49.90
21425;DHT22;10873;51.132;16.848;2023-11-25T00:08:37;24.50;49.90
21425;DHT22;10873;51.132;16.848;2023-11-25T00:11:03;24.50;50.00
21425;DHT22;10873;51.132;16.848;2023-11-25T00:13:30;24.50;50.00
21425;DHT22;10873;51.132;16.848;2023-11-25T00:15:56;24.50;50.00
21425;DHT22;10873;51.132;16.848;2023-11-25T00:18:23;24.50;49.90
21425;DHT22;10873;51.132;16.848;2023-11-25T00:20:49;24.60;50.50
21425;DHT22;10873;51.132;16.848;2023-11-25T00:23:18;24.60;49.80
21425;DHT22;10873;51.132;16.848;2023-11-25T00:25:44;24.60;49.80
21425;DHT22;10873;51.132;16.848;2023-11-25T00:28:10;24.60;49.80
21425;DHT22;10873;51.132;16.848;2023-11-25T00:30:36;24.60;49.80
21425;DHT22;10873;51.132;16.848;2023-11-25T00:33:02;24.60;49.70
21425;DHT22;10873;51.132;16.848;2023-11-25T00:35:33;24.60;49.70
21425;DHT22;10873;51.132;16.848;2023-11-25T00:37:59;24.60;49.60
21425;DHT22;10873;51.132;16.848;2023-11-25T00:40:26;24.60;49.70
21425;DHT22;10873;51.132;16.848;2023-11-25T00:42:53;24.60;49.60
21425;DHT22;10873;51.132;16.848;2023-11-25T00:45:19;24.60;49.60
21425;DHT22;10873;51.132;16.848;2023-11-25T00:47:47;24.60;49.50
21425;DHT22;10873;51.132;16.848;2023-11-25T00:50:12;24.60;49.40
21425;DHT22;10873;51.132;16.848;2023-11-25T00:52:43;24.60;49.30
21425;DHT22;10873;51.132;16.848;2023-11-25T00:55:09;24.60;49.20
21425;DHT22;10873;51.132;16.848;2023-11-25T00:57:36;24.60;49.10
21425;DHT22;10873;51.132;16.848;2023-11-25T01:00:02;24.60;49.10
21425;DHT22;10873;51.132;16.848;2023-11-25T01:02:32;24.60;49.10
21425;DHT22;10873;51.132;16.848;2023-11-25T01:04:58;24.60;49.00
21425;DHT22;10873;51.132;16.848;2023-11-25T01:07:24;24.60;49.00
21425;DHT22;10873;51.132;16.848;2023-11-25T01:09:51;24.60;49.00
21425;DHT22;10873;51.132;16.848;2023-11-25T01:12:17;24.60;48.90
21425;DHT22;10873;51.132;16.848;2023-11-25T01:14:43;24.60;48.90
21425;DHT22;10873;51.132;16.848;2023-11-25T01:17:09;24.60;48.80
21425;DHT22;10873;51.132;16.848;2023-11-25T01:19:35;24.60;48.80
21425;DHT22;10873;51.132;16.848;2023-11-25T01:22:01;24.60;48.80
21425;DHT22;10873;51.132;16.848;2023-11-25T01:24:28;24.60;48.80
21425;DHT22;10873;51.132;16.848;2023-11-25T01:26:56;24.50;48.70
21425;DHT22;10873;51.132;16.848;2023-11-25T01:29:23;24.50;48.70
21425;DHT22;10873;51.132;16.848;2023-11-25T01:31:49;24.50;48.70
21425;DHT22;10873;51.132;16.848;2023-11-25T01:34:15;24.50;48.70
21425;DHT22;10873;51.132;16.848;2023-11-25T01:36:41;24.50;48.70
21425;DHT22;10873;51.132;16.848;2023-11-25T01:39:07;24.50;48.70
21425;DHT22;10873;51.132;16.848;2023-11-25T01:41:34;24.50;48.70
21425;DHT22;10873;51.132;16.848;2023-11-25T01:44:01;24.50;49.40
21425;DHT22;10873;51.132;16.848;2023-11-25T01:46:34;24.50;48.70
21425;DHT22;10873;51.132;16.848;2023-11-25T01:49:02;24.50;48.70
21425;DHT22;10873;51.132;16.848;2023-11-25T01:51:29;24.50;48.60
21425;DHT22;10873;51.132;16.848;2023-11-25T01:53:55;24.50;48.70
21425;DHT22;10873;51.132;16.848;2023-11-25T01:56:21;24.50;48.60
21425;DHT22;10873;51.132;16.848;2023-11-25T01:58:47;24.50;48.60
21425;DHT22;10873;51.132;16.848;2023-11-25T02:01:16;24.50;49.20
21425;DHT22;10873;51.132;16.848;2023-11-25T02:03:43;24.40;48.40
21425;DHT22;10873;51.132;16.848;2023-11-25T02:06:10;24.40;48.40
21425;DHT22;10873;51.132;16.848;2023-11-25T02:08:35;24.50;48.40
21425;DHT22;10873;51.132;16.848;2023-11-25T02:11:02;24.50;48.40
21425;DHT22;10873;51.132;16.848;2023-11-25T02:13:28;24.40;48.30
21425;DHT22;10873;51.132;16.848;2023-11-25T02:15:54;24.40;48.30
21425;DHT22;10873;51.132;16.848;2023-11-25T02:18:21;24.40;48.30
21425;DHT22;10873;51.132;16.848;2023-11-25T02:20:51;24.40;48.30
21425;DHT22;10873;51.132;16.848;2023-11-25T02:23:19;24.40;48.30
21425;DHT22;10873;51.132;16.848;2023-11-25T02:25:46;24.40;48.20
21425;DHT22;10873;51.132;16.848;2023-11-25T02:28:17;24.40;48.20
21425;DHT22;10873;51.132;16.848;2023-11-25T02:30:45;24.30;48.20
21425;DHT22;10873;51.132;16.848;2023-11-25T02:33:12;24.30;48.20
21425;DHT22;10873;51.132;16.848;2023-11-25T02:35:38;24.30;48.20
21425;DHT22;10873;51.132;16.848;2023-11-25T02:38:05;24.40;48.20
21425;DHT22;10873;51.132;16.848;2023-11-25T02:40:32;24.40;48.20
21425;DHT22;10873;51.132;16.848;2023-11-25T02:42:58;24.40;48.20
21425;DHT22;10873;51.132;16.848;2023-11-25T02:45:24;24.40;48.20
21425;DHT22;10873;51.132;16.848;2023-11-25T02:47:54;24.40;48.10
21425;DHT22;10873;51.132;16.848;2023-11-25T02:50:20;24.50;48.10
21425;DHT22;10873;51.132;16.848;2023-11-25T02:52:47;24.50;48.10
21425;DHT22;10873;51.132;16.848;2023-11-25T02:55:14;24.50;48.10
21425;DHT22;10873;51.132;16.848;2023-11-25T02:57:44;24.50;48.00
21425;DHT22;10873;51.132;16.848;2023-11-25T03:00:12;24.50;48.00
21425;DHT22;10873;51.132;16.848;2023-11-25T03:02:54;24.50;48.00
21425;DHT22;10873;51.132;16.848;2023-11-25T03:05:38;24.50;47.90
21425;DHT22;10873;51.132;16.848;2023-11-25T03:08:06;24.50;47.90
21425;DHT22;10873;51.132;16.848;2023-11-25T03:10:32;24.50;47.80
21425;DHT22;10873;51.132;16.848;2023-11-25T03:12:59;24.50;47.80
21425;DHT22;10873;51.132;16.848;2023-11-25T03:15:26;24.50;48.40
21425;DHT22;10873;51.132;16.848;2023-11-25T03:17:52;24.50;47.70
21425;DHT22;10873;51.132;16.848;2023-11-25T03:20:18;24.50;47.60
21425;DHT22;10873;51.132;16.848;2023-11-25T03:22:44;24.50;47.60
21425;DHT22;10873;51.132;16.848;2023-11-25T03:25:10;24.50;47.60
21425;DHT22;10873;51.132;16.848;2023-11-25T03:27:38;24.50;47.60
21425;DHT22;10873;51.132;16.848;2023-11-25T03:30:06;24.50;47.70
21425;DHT22;10873;51.132;16.848;2023-11-25T03:32:33;24.40;47.60
21425;DHT22;10873;51.132;16.848;2023-11-25T03:35:00;24.40;47.70
21425;DHT22;10873;51.132;16.848;2023-11-25T03:37:26;24.40;47.70
21425;DHT22;10873;51.132;16.848;2023-11-25T03:39:53;24.40;47.70
21425;DHT22;10873;51.132;16.848;2023-11-25T03:42:19;24.40;47.70
21425;DHT22;10873;51.132;16.848;2023-11-25T03:44:46;24.40;47.80
21425;DHT22;10873;51.132;16.848;2023-11-25T03:47:13;24.40;47.80
21425;DHT22;10873;51.132;16.848;2023-11-25T03:49:39;24.40;47.80
21425;DHT22;10873;51.132;16.848;2023-11-25T03:52:06;24.40;47.80
21425;DHT22;10873;51.132;16.848;2023-11-25T03:54:32;24.40;47.80
21425;DHT22;10873;51.132;16.848;2023-11-25T03:57:04;24.40;47.80
21425;DHT22;10873;51.132;16.848;2023-11-25T03:59:31;24.40;47.80
21425;DHT22;10873;51.132;16.848;2023-11-25T04:01:56;24.40;47.80
21425;DHT22;10873;51.132;16.848;2023-11-25T04:04:27;24.40;47.70
21425;DHT22;10873;51.132;16.848;2023-11-25T04:06:53;24.40;47.70
21425;DHT22;10873;51.132;16.848;2023-11-25T04:09:19;24.40;47.70
21425;DHT22;10873;51.132;16.848;2023-11-25T04:11:45;24.30;48.30
21425;DHT22;10873;51.132;16.848;2023-11-25T04:14:11;24.30;47.60
21425;DHT22;10873;51.132;16.848;2023-11-25T04:16:37;24.30;47.60
21425;DHT22;10873;51.132;16.848;2023-11-25T04:19:05;24.30;47.60
21425;DHT22;10873;51.132;16.848;2023-11-25T04:21:32;24.30;47.60
21425;DHT22;10873;51.132;16.848;2023-11-25T04:23:59;24.30;47.60
21425;DHT22;10873;51.132;16.848;2023-11-25T04:26:25;24.30;47.60
21425;DHT22;10873;51.132;16.848;2023-11-25T04:28:51;24.30;47.70
21425;DHT22;10873;51.132;16.848;2023-11-25T04:31:18;24.30;47.70
21425;DHT22;10873;51.132;16.848;2023-11-25T04:33:44;24.30;47.70
21425;DHT22;10873;51.132;16.848;2023-11-25T04:36:10;24.20;47.70
21425;DHT22;10873;51.132;16.848;2023-11-25T04:38:38;24.20;47.70
21425;DHT22;10873;51.132;16.848;2023-11-25T04:41:03;24.30;47.80
21425;DHT22;10873;51.132;16.848;2023-11-25T04:43:30;24.20;47.80
21425;DHT22;10873;51.132;16.848;2023-11-25T04:45:56;24.20;47.80
21425;DHT22;10873;51.132;16.848;2023-11-25T04:48:22;24.20;47.80
21425;DHT22;10873;51.132;16.848;2023-11-25T04:50:48;24.20;47.90
21425;DHT22;10873;51.132;16.848;2023-11-25T04:53:15;24.20;47.90
21425;DHT22;10873;51.132;16.848;2023-11-25T04:55:42;24.20;48.00
21425;DHT22;10873;51.132;16.848;2023-11-25T04:58:08;24.20;48.10
21425;DHT22;10873;51.132;16.848;2023-11-25T05:00:34;24.20;48.20
21425;DHT22;10873;51.132;16.848;2023-11-25T05:03:02;24.20;48.20
21425;DHT22;10873;51.132;16.848;2023-11-25T05:05:30;24.20;48.30
21425;DHT22;10873;51.132;16.848;2023-11-25T05:07:58;24.20;48.30
21425;DHT22;10873;51.132;16.848;2023-11-25T05:10:24;24.20;48.20
21425;DHT22;10873;51.132;16.848;2023-11-25T05:12:52;24.20;48.20
21425;DHT22;10873;51.132;16.848;2023-11-25T05:15:17;24.20;48.20
21425;DHT22;10873;51.132;16.848;2023-11-25T05:17:44;24.20;48.20
21425;DHT22;10873;51.132;16.848;2023-11-25T05:20:11;24.10;48.10
21425;DHT22;10873;51.132;16.848;2023-11-25T05:22:41;24.20;48.20
21425;DHT22;10873;51.132;16.848;2023-11-25T05:25:08;24.10;48.20
21425;DHT22;10873;51.132;16.848;2023-11-25T05:27:37;24.10;48.40
21425;DHT22;10873;51.132;16.848;2023-11-25T05:30:05;24.10;48.40
21425;DHT22;10873;51.132;16.848;2023-11-25T05:32:32;24.10;48.40
21425;DHT22;10873;51.132;16.848;2023-11-25T05:34:58;24.10;48.40
21425;DHT22;10873;51.132;16.848;2023-11-25T05:37:24;24.10;48.40
21425;DHT22;10873;51.132;16.848;2023-11-25T05:39:50;24.10;48.40
21425;DHT22;10873;51.132;16.848;2023-11-25T05:42:16;24.10;48.30
21425;DHT22;10873;51.132;16.848;2023-11-25T05:44:49;24.20;48.30
21425;DHT22;10873;51.132;16.848;2023-11-25T05:47:18;24.10;48.30
21425;DHT22;10873;51.132;16.848;2023-11-25T05:49:44;24.10;48.20
21425;DHT22;10873;51.132;16.848;2023-11-25T05:52:10;24.10;48.30
21425;DHT22;10873;51.132;16.848;2023-11-25T05:54:36;24.10;48.30
21425;DHT22;10873;51.132;16.848;2023-11-25T05:57:03;24.10;48.40
21425;DHT22;10873;51.132;16.848;2023-11-25T05:59:28;24.10;48.40
21425;DHT22;10873;51.132;16.848;2023-11-25T06:01:55;24.10;48.50
21425;DHT22;10873;51.132;16.848;2023-11-25T06:04:22;24.10;48.60
21425;DHT22;10873;51.132;16.848;2023-11-25T06:06:48;24.10;48.60
21425;DHT22;10873;51.132;16.848;2023-11-25T06:09:15;24.10;48.60
21425;DHT22;10873;51.132;16.848;2023-11-25T06:11:44;24.10;48.70
21425;DHT22;10873;51.132;16.848;2023-11-25T06:14:10;24.10;48.70
21425;DHT22;10873;51.132;16.848;2023-11-25T06:16:51;24.10;48.70
21425;DHT22;10873;51.132;16.848;2023-11-25T06:19:19;24.10;48.80
21425;DHT22;10873;51.132;16.848;2023-11-25T06:21:50;24.10;48.80
21425;DHT22;10873;51.132;16.848;2023-11-25T06:24:16;24.10;49.20
21425;DHT22;10873;51.132;16.848;2023-11-25T06:26:42;24.10;50.20
21425;DHT22;10873;51.132;16.848;2023-11-25T06:29:12;24.10;51.90
21425;DHT22;10873;51.132;16.848;2023-11-25T06:31:38;24.10;53.60
21425;DHT22;10873;51.132;16.848;2023-11-25T06:34:10;24.10;53.20
21425;DHT22;10873;51.132;16.848;2023-11-25T06:36:36;24.10;52.70
21425;DHT22;10873;51.132;16.848;2023-11-25T06:39:03;24.10;52.30
21425;DHT22;10873;51.132;16.848;2023-11-25T06:41:32;24.10;52.00
21425;DHT22;10873;51.132;16.848;2023-11-25T06:43:58;24.10;51.80
21425;DHT22;10873;51.132;16.848;2023-11-25T06:46:24;24.10;51.50
21425;DHT22;10873;51.132;16.848;2023-11-25T06:48:50;24.10;51.20
21425;DHT22;10873;51.132;16.848;2023-11-25T06:51:18;24.10;50.90
21425;DHT22;10873;51.132;16.848;2023-11-25T06:53:44;24.10;50.60
21425;DHT22;10873;51.132;16.848;2023-11-25T06:56:11;24.10;50.30
21425;DHT22;10873;51.132;16.848;2023-11-25T06:58:37;24.10;50.10
21425;DHT22;10873;51.132;16.848;2023-11-25T07:01:04;24.10;49.80
21425;DHT22;10873;51.132;16.848;2023-11-25T07:03:30;24.10;49.60
21425;DHT22;10873;51.132;16.848;2023-11-25T07:05:56;24.10;49.50
21425;DHT22;10873;51.132;16.848;2023-11-25T07:08:23;24.10;49.30
21425;DHT22;10873;51.132;16.848;2023-11-25T07:10:50;24.10;49.20
21425;DHT22;10873;51.132;16.848;2023-11-25T07:13:27;24.10;49.10
21425;DHT22;10873;51.132;16.848;2023-11-25T07:15:54;24.10;49.00
21425;DHT22;10873;51.132;16.848;2023-11-25T07:18:21;24.10;48.90
21425;DHT22;10873;51.132;16.848;2023-11-25T07:20:49;24.10;48.80
21425;DHT22;10873;51.132;16.848;2023-11-25T07:23:14;24.10;48.80
21425;DHT22;10873;51.132;16.848;2023-11-25T07:25:41;24.10;48.70
21425;DHT22;10873;51.132;16.848;2023-11-25T07:28:07;24.10;48.60
21425;DHT22;10873;51.132;16.848;2023-11-25T07:30:37;24.10;48.60
21425;DHT22;10873;51.132;16.848;2023-11-25T07:33:03;24.10;48.50
21425;DHT22;10873;51.132;16.848;2023-11-25T07:35:32;24.10;48.50
21425;DHT22;10873;51.132;16.848;2023-11-25T07:37:58;24.10;48.50
21425;DHT22;10873;51.132;16.848;2023-11-25T07:40:24;24.10;48.40
21425;DHT22;10873;51.132;16.848;2023-11-25T07:42:50;24.10;48.40
21425;DHT22;10873;51.132;16.848;2023-11-25T07:45:17;24.10;48.40
21425;DHT22;10873;51.132;16.848;2023-11-25T07:47:44;24.10;48.40
21425;DHT22;10873;51.132;16.848;2023-11-25T07:50:11;24.10;48.50
21425;DHT22;10873;51.132;16.848;2023-11-25T07:52:37;24.10;48.40
21425;DHT22;10873;51.132;16.848;2023-11-25T07:55:04;24.10;48.40
21425;DHT22;10873;51.132;16.848;2023-11-25T07:57:30;24.10;48.40
21425;DHT22;10873;51.132;16.848;2023-11-25T07:59:57;24.10;48.40
21425;DHT22;10873;51.132;16.848;2023-11-25T08:02:22;24.10;48.40
21425;DHT22;10873;51.132;16.848;2023-11-25T08:04:50;24.10;48.40
21425;DHT22;10873;51.132;16.848;2023-11-25T08:07:17;24.10;48.40
21425;DHT22;10873;51.132;16.848;2023-11-25T08:09:44;24.10;48.40
21425;DHT22;10873;51.132;16.848;2023-11-25T08:12:10;24.10;48.60
21425;DHT22;10873;51.132;16.848;2023-11-25T08:14:36;24.10;49.50
21425;DHT22;10873;51.132;16.848;2023-11-25T08:17:02;24.10;49.80
21425;DHT22;10873;51.132;16.848;2023-11-25T08:19:28;24.00;49.50
21425;DHT22;10873;51.132;16.848;2023-11-25T08:21:56;24.10;48.80
21425;DHT22;10873;51.132;16.848;2023-11-25T08:24:22;24.10;48.40
21425;DHT22;10873;51.132;16.848;2023-11-25T08:26:49;24.10;48.30
21425;DHT22;10873;51.132;16.848;2023-11-25T08:29:15;24.10;48.30
21425;DHT22;10873;51.132;16.848;2023-11-25T08:31:48;24.10;48.20
21425;DHT22;10873;51.132;16.848;2023-11-25T08:34:38;24.10;48.20
21425;DHT22;10873;51.132;16.848;2023-11-25T08:37:15;24.10;48.20
21425;DHT22;10873;51.132;16.848;2023-11-25T08:39:42;24.10;48.30
21425;DHT22;10873;51.132;16.848;2023-11-25T08:42:08;24.10;48.30
21425;DHT22;10873;51.132;16.848;2023-11-25T08:44:35;24.10;48.40
21425;DHT22;10873;51.132;16.848;2023-11-25T08:47:01;24.10;48.50
21425;DHT22;10873;51.132;16.848;2023-11-25T08:49:28;24.10;48.60
21425;DHT22;10873;51.132;16.848;2023-11-25T08:51:54;24.10;48.60
21425;DHT22;10873;51.132;16.848;2023-11-25T08:54:21;24.10;48.70
21425;DHT22;10873;51.132;16.848;2023-11-25T08:56:48;24.20;48.80
21425;DHT22;10873;51.132;16.848;2023-11-25T08:59:15;24.20;48.80
21425;DHT22;10873;51.132;16.848;2023-11-25T09:01:46;24.20;48.90
21425;DHT22;10873;51.132;16.848;2023-11-25T09:04:16;24.20;49.00
21425;DHT22;10873;51.132;16.848;2023-11-25T09:06:45;24.20;49.00
21425;DHT22;10873;51.132;16.848;2023-11-25T09:09:13;24.20;49.00
21425;DHT22;10873;51.132;16.848;2023-11-25T09:11:41;24.20;49.00
21425;DHT22;10873;51.132;16.848;2023-11-25T09:14:07;24.20;49.00
21425;DHT22;10873;51.132;16.848;2023-11-25T09:16:33;24.20;49.00
21425;DHT22;10873;51.132;16.848;2023-11-25T09:18:59;24.20;49.10
21425;DHT22;10873;51.132;16.848;2023-11-25T09:21:26;24.20;49.20
21425;DHT22;10873;51.132;16.848;2023-11-25T09:23:52;24.20;49.10
21425;DHT22;10873;51.132;16.848;2023-11-25T09:26:21;24.20;49.00
21425;DHT22;10873;51.132;16.848;2023-11-25T09:28:50;24.30;49.00
21425;DHT22;10873;51.132;16.848;2023-11-25T09:31:16;24.30;48.90
21425;DHT22;10873;51.132;16.848;2023-11-25T09:33:42;24.30;48.80
21425;DHT22;10873;51.132;16.848;2023-11-25T09:36:12;24.30;48.70
21425;DHT22;10873;51.132;16.848;2023-11-25T09:38:38;24.30;48.60
21425;DHT22;10873;51.132;16.848;2023-11-25T09:41:06;24.30;48.60
21425;DHT22;10873;51.132;16.848;2023-11-25T09:43:36;24.30;48.50
21425;DHT22;10873;51.132;16.848;2023-11-25T09:46:04;24.30;48.50
21425;DHT22;10873;51.132;16.848;2023-11-25T09:48:31;24.30;48.60
21425;DHT22;10873;51.132;16.848;2023-11-25T09:50:59;24.30;48.70
21425;DHT22;10873;51.132;16.848;2023-11-25T09:53:27;24.30;48.80
21425;DHT22;10873;51.132;16.848;2023-11-25T09:56:00;24.30;49.00
21425;DHT22;10873;51.132;16.848;2023-11-25T09:58:28;24.30;49.10
21425;DHT22;10873;51.132;16.848;2023-11-25T10:00:55;24.30;49.10
21425;DHT22;10873;51.132;16.848;2023-11-25T10:03:25;24.30;49.20
21425;DHT22;10873;51.132;16.848;2023-11-25T10:05:54;24.30;49.20
21425;DHT22;10873;51.132;16.848;2023-11-25T10:08:20;24.40;49.20
21425;DHT22;10873;51.132;16.848;2023-11-25T10:11:01;24.40;49.20
21425;DHT22;10873;51.132;16.848;2023-11-25T10:13:32;24.40;49.30
21425;DHT22;10873;51.132;16.848;2023-11-25T10:15:58;24.40;49.20
21425;DHT22;10873;51.132;16.848;2023-11-25T10:18:26;24.40;49.20
21425;DHT22;10873;51.132;16.848;2023-11-25T10:20:53;24.40;49.30
21425;DHT22;10873;51.132;16.848;2023-11-25T10:23:24;24.40;49.30
21425;DHT22;10873;51.132;16.848;2023-11-25T10:25:50;24.40;49.30
21425;DHT22;10873;51.132;16.848;2023-11-25T10:28:18;24.40;49.30
21425;DHT22;10873;51.132;16.848;2023-11-25T10:30:52;24.40;49.30
21425;DHT22;10873;51.132;16.848;2023-11-25T10:33:21;24.40;49.40
21425;DHT22;10873;51.132;16.848;2023-11-25T10:35:48;24.40;49.40
21425;DHT22;10873;51.132;16.848;2023-11-25T10:38:15;24.40;49.90
21425;DHT22;10873;51.132;16.848;2023-11-25T10:40:42;24.40;51.30
21425;DHT22;10873;51.132;16.848;2023-11-25T10:43:09;24.40;52.30
21425;DHT22;10873;51.132;16.848;2023-11-25T10:45:35;24.40;52.90
21425;DHT22;10873;51.132;16.848;2023-11-25T10:48:02;24.40;53.40
21425;DHT22;10873;51.132;16.848;2023-11-25T10:50:29;24.40;53.60
21425;DHT22;10873;51.132;16.848;2023-11-25T10:53:04;24.40;54.10
21425;DHT22;10873;51.132;16.848;2023-11-25T10:55:31;24.40;55.00
21425;DHT22;10873;51.132;16.848;2023-11-25T10:57:58;24.50;54.50
21425;DHT22;10873;51.132;16.848;2023-11-25T11:00:28;24.50;54.50
21425;DHT22;10873;51.132;16.848;2023-11-25T11:02:57;24.60;60.20
21425;DHT22;10873;51.132;16.848;2023-11-25T11:05:29;24.80;62.00
21425;DHT22;10873;51.132;16.848;2023-11-25T11:08:01;25.00;62.60
21425;DHT22;10873;51.132;16.848;2023-11-25T11:10:32;25.30;63.70
21425;DHT22;10873;51.132;16.848;2023-11-25T11:13:03;25.60;64.00
21425;DHT22;10873;51.132;16.848;2023-11-25T11:15:33;26.10;64.30
21425;DHT22;10873;51.132;16.848;2023-11-25T11:18:06;26.40;64.50
21425;DHT22;10873;51.132;16.848;2023-11-25T11:20:38;26.90;64.60
21425;DHT22;10873;51.132;16.848;2023-11-25T11:23:09;27.20;64.30
21425;DHT22;10873;51.132;16.848;2023-11-25T11:25:38;27.50;64.50
21425;DHT22;10873;51.132;16.848;2023-11-25T11:28:17;27.70;64.10
21425;DHT22;10873;51.132;16.848;2023-11-25T11:33:58;28.30;64.00
21425;DHT22;10873;51.132;16.848;2023-11-25T11:36:29;28.50;63.70
21425;DHT22;10873;51.132;16.848;2023-11-25T11:38:57;28.70;63.60
21425;DHT22;10873;51.132;16.848;2023-11-25T11:41:24;28.90;63.10
21425;DHT22;10873;51.132;16.848;2023-11-25T11:44:00;29.10;63.00
21425;DHT22;10873;51.132;16.848;2023-11-25T11:46:26;29.30;64.00
21425;DHT22;10873;51.132;16.848;2023-11-25T11:48:53;29.10;61.30
21425;DHT22;10873;51.132;16.848;2023-11-25T11:51:19;28.90;60.30
21425;DHT22;10873;51.132;16.848;2023-11-25T11:54:26;28.90;63.30
21425;DHT22;10873;51.132;16.848;2023-11-25T11:57:01;29.00;62.40
21425;DHT22;10873;51.132;16.848;2023-11-25T11:59:57;29.30;61.30
21425;DHT22;10873;51.132;16.848;2023-11-25T12:02:29;29.50;60.20
21425;DHT22;10873;51.132;16.848;2023-11-25T12:04:58;29.60;59.20
21425;DHT22;10873;51.132;16.848;2023-11-25T12:07:24;29.80;56.60
21425;DHT22;10873;51.132;16.848;2023-11-25T12:09:54;29.90;55.50
21425;DHT22;10873;51.132;16.848;2023-11-25T12:12:21;30.00;55.70
21425;DHT22;10873;51.132;16.848;2023-11-25T12:14:47;30.20;55.40
21425;DHT22;10873;51.132;16.848;2023-11-25T12:17:13;30.30;54.90
21425;DHT22;10873;51.132;16.848;2023-11-25T12:19:41;30.40;54.50
21425;DHT22;10873;51.132;16.848;2023-11-25T12:22:10;30.50;54.00
21425;DHT22;10873;51.132;16.848;2023-11-25T12:24:39;30.60;53.90
21425;DHT22;10873;51.132;16.848;2023-11-25T12:27:10;30.70;53.30
21425;DHT22;10873;51.132;16.848;2023-11-25T12:29:36;30.80;53.00
21425;DHT22;10873;51.132;16.848;2023-11-25T12:32:05;30.90;52.70
21425;DHT22;10873;51.132;16.848;2023-11-25T12:34:31;31.00;52.40
21425;DHT22;10873;51.132;16.848;2023-11-25T12:36:58;31.10;52.20
21425;DHT22;10873;51.132;16.848;2023-11-25T12:39:26;31.20;51.50
21425;DHT22;10873;51.132;16.848;2023-11-25T12:41:52;31.20;53.00
21425;DHT22;10873;51.132;16.848;2023-11-25T12:44:20;31.00;53.60
21425;DHT22;10873;51.132;16.848;2023-11-25T12:47:00;30.70;53.50
21425;DHT22;10873;51.132;16.848;2023-11-25T12:49:27;30.70;53.40
21425;DHT22;10873;51.132;16.848;2023-11-25T12:51:53;30.70;53.00
21425;DHT22;10873;51.132;16.848;2023-11-25T12:54:19;30.90;52.70
21425;DHT22;10873;51.132;16.848;2023-11-25T12:56:48;30.80;53.10
21425;DHT22;10873;51.132;16.848;2023-11-25T12:59:21;30.50;52.50
21425;DHT22;10873;51.132;16.848;2023-11-25T13:01:48;30.30;51.20
21425;DHT22;10873;51.132;16.848;2023-11-25T13:04:15;30.10;51.70
21425;DHT22;10873;51.132;16.848;2023-11-25T13:06:56;29.80;51.30
21425;DHT22;10873;51.132;16.848;2023-11-25T13:09:26;29.50;51.90
21425;DHT22;10873;51.132;16.848;2023-11-25T13:12:01;29.40;51.80
21425;DHT22;10873;51.132;16.848;2023-11-25T13:14:28;29.20;51.40
21425;DHT22;10873;51.132;16.848;2023-11-25T13:16:55;29.00;50.50
21425;DHT22;10873;51.132;16.848;2023-11-25T13:19:21;28.90;51.00
21425;DHT22;10873;51.132;16.848;2023-11-25T13:21:47;28.80;50.00
21425;DHT22;10873;51.132;16.848;2023-11-25T13:24:14;28.70;49.60
21425;DHT22;10873;51.132;16.848;2023-11-25T13:26:41;28.60;49.20
21425;DHT22;10873;51.132;16.848;2023-11-25T13:29:11;28.50;48.70
21425;DHT22;10873;51.132;16.848;2023-11-25T13:31:38;28.40;48.60
21425;DHT22;10873;51.132;16.848;2023-11-25T13:34:05;28.30;48.30
21425;DHT22;10873;51.132;16.848;2023-11-25T13:36:31;28.30;48.10
21425;DHT22;10873;51.132;16.848;2023-11-25T13:38:59;28.20;47.90
21425;DHT22;10873;51.132;16.848;2023-11-25T13:41:25;28.10;47.80
21425;DHT22;10873;51.132;16.848;2023-11-25T13:43:52;28.00;47.70
21425;DHT22;10873;51.132;16.848;2023-11-25T13:46:18;28.00;47.50
21425;DHT22;10873;51.132;16.848;2023-11-25T13:48:46;27.90;47.20
21425;DHT22;10873;51.132;16.848;2023-11-25T13:51:12;27.90;47.20
21425;DHT22;10873;51.132;16.848;2023-11-25T13:53:39;27.80;47.10
21425;DHT22;10873;51.132;16.848;2023-11-25T13:56:06;27.70;46.90
21425;DHT22;10873;51.132;16.848;2023-11-25T13:58:34;27.70;46.90
21425;DHT22;10873;51.132;16.848;2023-11-25T14:01:00;27.60;46.70
21425;DHT22;10873;51.132;16.848;2023-11-25T14:03:27;27.60;46.70
21425;DHT22;10873;51.132;16.848;2023-11-25T14:05:54;27.50;46.60
21425;DHT22;10873;51.132;16.848;2023-11-25T14:08:22;27.50;46.40
21425;DHT22;10873;51.132;16.848;2023-11-25T14:10:56;27.40;46.30
21425;DHT22;10873;51.132;16.848;2023-11-25T14:13:23;27.40;46.30
21425;DHT22;10873;51.132;16.848;2023-11-25T14:15:49;27.30;46.20
21425;DHT22;10873;51.132;16.848;2023-11-25T14:18:15;27.30;46.20
21425;DHT22;10873;51.132;16.848;2023-11-25T14:20:42;27.30;46.20
21425;DHT22;10873;51.132;16.848;2023-11-25T14:23:09;27.20;46.00
21425;DHT22;10873;51.132;16.848;2023-11-25T14:25:36;27.20;46.00
21425;DHT22;10873;51.132;16.848;2023-11-25T14:28:02;27.20;46.00
21425;DHT22;10873;51.132;16.848;2023-11-25T14:30:28;27.10;45.90
21425;DHT22;10873;51.132;16.848;2023-11-25T14:32:56;27.10;45.80
21425;DHT22;10873;51.132;16.848;2023-11-25T14:35:23;27.00;45.70
21425;DHT22;10873;51.132;16.848;2023-11-25T14:37:49;27.00;45.70
21425;DHT22;10873;51.132;16.848;2023-11-25T14:40:16;27.00;45.70
21425;DHT22;10873;51.132;16.848;2023-11-25T14:42:44;26.90;45.60
21425;DHT22;10873;51.132;16.848;2023-11-25T14:45:10;26.90;45.60
21425;DHT22;10873;51.132;16.848;2023-11-25T14:47:37;26.90;45.60
21425;DHT22;10873;51.132;16.848;2023-11-25T14:50:03;26.80;45.60
21425;DHT22;10873;51.132;16.848;2023-11-25T14:52:29;26.80;45.60
21425;DHT22;10873;51.132;16.848;2023-11-25T14:54:56;26.70;45.50
21425;DHT22;10873;51.132;16.848;2023-11-25T14:57:23;26.70;45.50
21425;DHT22;10873;51.132;16.848;2023-11-25T14:59:49;26.70;45.50
21425;DHT22;10873;51.132;16.848;2023-11-25T15:02:16;26.60;45.50
21425;DHT22;10873;51.132;16.848;2023-11-25T15:04:42;26.60;45.50
21425;DHT22;10873;51.132;16.848;2023-11-25T15:07:09;26.60;45.50
21425;DHT22;10873;51.132;16.848;2023-11-25T15:09:34;26.60;45.50
21425;DHT22;10873;51.132;16.848;2023-11-25T15:12:04;26.60;46.20
21425;DHT22;10873;51.132;16.848;2023-11-25T15:14:31;26.60;45.50
21425;DHT22;10873;51.132;16.848;2023-11-25T15:16:58;26.50;45.50
21425;DHT22;10873;51.132;16.848;2023-11-25T15:19:25;26.50;45.50
21425;DHT22;10873;51.132;16.848;2023-11-25T15:21:52;26.40;45.50